createdAt,value
2018-09-18T00:00:10.946Z,18.05
2018-09-18T00:05:29.462Z,18.07
2018-09-18T00:10:48.135Z,17.89
2018-09-18T00:16:06.729Z,18.98
2018-09-18T00:21:25.273Z,17.51
2018-09-18T00:26:43.809Z,17.80
2018-09-18T00:32:03.028Z,16.98
2018-09-18T00:37:21.859Z,17.06
2018-09-18T00:42:40.662Z,16.85
2018-09-18T00:47:59.283Z,17.00
2018-09-18T00:53:18.554Z,17.20
2018-09-18T00:58:37.254Z,17.64
2018-09-18T01:03:56.330Z,16.81
2018-09-18T01:09:14.904Z,16.49
2018-09-18T01:14:34.942Z,16.28
2018-09-18T01:19:53.505Z,17.29
2018-09-18T01:25:12.240Z,17.39
2018-09-18T01:30:31.394Z,16.68
2018-09-18T01:35:50.129Z,17.34
2018-09-18T01:41:09.279Z,16.65
2018-09-18T01:46:28.406Z,16.33
2018-09-18T01:51:47.025Z,16.86
2018-09-18T01:57:06.331Z,17.95
2018-09-18T02:02:24.846Z,16.94
2018-09-18T02:07:43.350Z,16.73
2018-09-18T02:13:01.903Z,16.91
2018-09-18T02:18:20.630Z,17.00
2018-09-18T02:23:39.133Z,16.50
2018-09-18T02:28:58.128Z,15.85
2018-09-18T02:34:16.655Z,16.40
2018-09-18T02:39:35.142Z,17.35
2018-09-18T02:44:53.650Z,16.54
2018-09-18T02:50:12.927Z,16.43
2018-09-18T02:55:31.460Z,16.82
2018-09-18T03:00:50.615Z,16.23
2018-09-18T03:06:09.437Z,16.23
2018-09-18T03:11:27.963Z,16.83
2018-09-18T03:16:47.905Z,15.78
2018-09-18T03:22:06.404Z,16.45
2018-09-18T03:27:25.356Z,17.05
2018-09-18T03:32:43.839Z,16.26
2018-09-18T03:38:08.719Z,16.51
2018-09-18T03:43:27.368Z,16.41
2018-09-18T03:48:46.035Z,17.55
2018-09-18T03:54:04.668Z,16.38
2018-09-18T03:59:23.783Z,16.15
2018-09-18T04:04:42.439Z,16.79
2018-09-18T04:10:01.787Z,17.34
2018-09-18T04:15:20.806Z,18.35
2018-09-18T04:20:39.558Z,18.04
2018-09-18T04:25:58.421Z,17.58
2018-09-18T04:31:18.149Z,17.58
2018-09-18T04:36:37.038Z,18.52
2018-09-18T04:41:56.391Z,17.76
2018-09-18T04:47:14.963Z,18.20
2018-09-18T04:52:33.597Z,16.93
2018-09-18T04:57:52.295Z,17.34
2018-09-18T05:03:12.318Z,17.60
2018-09-18T05:08:31.121Z,17.85
2018-09-18T05:13:50.357Z,18.01
2018-09-18T05:19:08.865Z,16.97
2018-09-18T05:24:27.394Z,17.37
2018-09-18T05:29:45.915Z,17.21
2018-09-18T05:35:04.587Z,17.05
2018-09-18T05:40:23.379Z,18.50
2018-09-18T05:45:42.116Z,17.86
2018-09-18T05:51:00.646Z,17.67
2018-09-18T05:56:19.799Z,17.72
2018-09-18T06:01:39.238Z,17.76
2018-09-18T06:06:57.798Z,19.22
2018-09-18T06:12:16.312Z,19.57
2018-09-18T06:17:34.901Z,19.54
2018-09-18T06:22:53.408Z,19.44
2018-09-18T06:28:12.861Z,19.25
2018-09-18T06:33:31.645Z,20.07
2018-09-18T06:38:50.188Z,19.85
2018-09-18T06:44:08.753Z,21.09
2018-09-18T06:49:27.556Z,21.41
2018-09-18T06:54:46.105Z,21.46
2018-09-18T07:00:05.314Z,21.69
2018-09-18T07:05:23.799Z,22.11
2018-09-18T07:10:42.315Z,22.76
2018-09-18T07:16:00.879Z,24.39
2018-09-18T07:21:19.379Z,24.29
2018-09-18T07:26:37.891Z,25.17
2018-09-18T07:31:56.378Z,27.19
2018-09-18T07:37:15.536Z,26.77
2018-09-18T07:42:34.909Z,27.07
2018-09-18T07:47:54.034Z,27.59
2018-09-18T07:53:12.753Z,26.76
2018-09-18T07:58:31.295Z,28.48
2018-09-18T08:03:50.014Z,28.00
2018-09-18T08:09:11.193Z,28.54
2018-09-18T08:14:29.732Z,29.73
2018-09-18T08:19:48.355Z,30.26
2018-09-18T08:25:08.040Z,30.42
2018-09-18T08:30:26.612Z,30.05
2018-09-18T08:35:45.144Z,30.11
2018-09-18T08:41:03.959Z,31.40
2018-09-18T08:46:22.518Z,30.75
2018-09-18T08:51:41.837Z,31.72
2018-09-18T08:57:00.325Z,30.66
2018-09-18T09:02:18.947Z,29.60
2018-09-18T09:07:37.495Z,29.54
2018-09-18T09:12:55.901Z,32.13
2018-09-18T09:18:14.468Z,31.60
2018-09-18T09:23:33.179Z,32.02
2018-09-18T09:28:51.727Z,34.20
2018-09-18T09:34:10.244Z,33.32
2018-09-18T09:39:29.767Z,32.10
2018-09-18T09:44:48.286Z,31.29
2018-09-18T09:50:07.895Z,32.03
2018-09-18T09:55:26.439Z,32.54
2018-09-18T10:00:50.340Z,30.32
2018-09-18T10:06:08.899Z,29.55
2018-09-18T10:11:27.514Z,29.02
2018-09-18T10:16:46.754Z,29.15
2018-09-18T10:22:05.316Z,28.94
2018-09-18T10:27:23.877Z,28.90
2018-09-18T10:32:42.523Z,28.61
2018-09-18T10:38:08.462Z,28.96
2018-09-18T10:43:27.001Z,29.26
2018-09-18T10:48:50.175Z,28.94
2018-09-18T10:54:08.716Z,29.38
2018-09-18T10:59:27.288Z,29.31
2018-09-18T11:04:45.984Z,29.14
2018-09-18T11:10:05.895Z,29.66
2018-09-18T11:15:31.273Z,29.98
2018-09-18T11:20:50.393Z,30.38
2018-09-18T11:26:08.934Z,31.14
2018-09-18T11:31:27.644Z,31.98
2018-09-18T11:36:46.279Z,33.35
2018-09-18T11:42:04.804Z,33.50
2018-09-18T11:47:23.352Z,34.16
2018-09-18T11:52:41.975Z,33.56
2018-09-18T11:58:00.503Z,34.06
2018-09-18T12:03:19.047Z,34.82
2018-09-18T12:08:37.675Z,34.63
2018-09-18T12:13:56.202Z,34.13
2018-09-18T12:19:14.924Z,34.65
2018-09-18T12:24:33.484Z,33.92
2018-09-18T12:29:52.065Z,35.36
2018-09-18T12:35:10.635Z,34.68
2018-09-18T12:40:29.110Z,33.99
2018-09-18T12:45:47.676Z,33.56
2018-09-18T12:51:08.067Z,32.92
2018-09-18T12:56:26.676Z,33.27
2018-09-18T13:01:46.772Z,33.00
2018-09-18T13:07:06.159Z,33.08
2018-09-18T13:12:25.202Z,33.80
2018-09-18T13:17:44.459Z,33.31
2018-09-18T13:23:03.288Z,33.99
2018-09-18T13:28:21.897Z,33.45
2018-09-18T13:33:41.156Z,32.95
2018-09-18T13:38:59.662Z,32.39
2018-09-18T13:44:18.335Z,32.37
2018-09-18T13:49:36.946Z,32.05
2018-09-18T13:54:55.548Z,33.23
2018-09-18T14:00:14.163Z,31.81
2018-09-18T14:05:32.864Z,32.74
2018-09-18T14:10:51.401Z,32.74
2018-09-18T14:16:10.444Z,32.26
2018-09-18T14:21:28.967Z,32.74
2018-09-18T14:26:47.607Z,32.00
2018-09-18T14:32:07.092Z,31.78
2018-09-18T14:37:25.594Z,31.11
2018-09-18T14:42:44.082Z,31.03
2018-09-18T14:48:02.607Z,31.03
2018-09-18T14:53:21.164Z,31.68
2018-09-18T14:58:46.486Z,32.10
2018-09-18T15:04:05.062Z,31.02
2018-09-18T15:09:23.569Z,30.67
2018-09-18T15:14:42.171Z,31.56
2018-09-18T15:20:00.782Z,32.22
2018-09-18T15:25:19.961Z,32.24
2018-09-18T15:30:38.502Z,31.48
2018-09-18T15:35:57.750Z,31.73
2018-09-18T15:41:16.801Z,31.22
2018-09-18T15:46:36.661Z,30.76
2018-09-18T15:51:55.484Z,29.86
2018-09-18T15:57:14.330Z,30.27
2018-09-18T16:02:32.896Z,29.94
2018-09-18T16:07:51.512Z,29.55
2018-09-18T16:13:10.951Z,29.07
2018-09-18T16:18:30.164Z,28.95
2018-09-18T16:23:48.792Z,28.58
2018-09-18T16:29:07.373Z,28.48
2018-09-18T16:34:26.043Z,28.29
2018-09-18T16:39:44.579Z,28.02
2018-09-18T16:45:03.219Z,27.83
2018-09-18T16:50:22.411Z,27.55
2018-09-18T16:55:40.978Z,27.34
2018-09-18T17:01:00.201Z,27.08
2018-09-18T17:06:19.283Z,26.86
2018-09-18T17:11:38.235Z,26.78
2018-09-18T17:16:56.862Z,26.41
2018-09-18T17:22:15.610Z,26.38
2018-09-18T17:27:34.163Z,26.04
2018-09-18T17:32:52.751Z,25.98
2018-09-18T17:38:11.287Z,25.82
2018-09-18T17:53:30.061Z,25.26
2018-09-18T18:04:45.795Z,24.91
2018-09-18T18:10:04.131Z,24.81
2018-09-18T18:15:21.971Z,24.69
2018-09-18T18:20:39.766Z,24.49
2018-09-18T18:25:57.489Z,24.39
2018-09-18T18:31:15.902Z,24.29
2018-09-18T18:36:33.637Z,24.11
2018-09-18T18:41:51.400Z,23.63
2018-09-18T18:47:09.252Z,23.50
2018-09-18T18:52:26.975Z,23.40
2018-09-18T18:57:45.341Z,23.46
2018-09-18T19:03:04.078Z,23.29
2018-09-18T19:08:21.818Z,23.05
2018-09-18T19:13:39.575Z,23.11
2018-09-18T19:18:57.965Z,22.91
2018-09-18T19:24:15.734Z,22.75
2018-09-18T19:29:33.499Z,22.18
2018-09-18T19:34:51.393Z,21.64
2018-09-18T19:40:09.387Z,22.07
2018-09-18T19:45:27.237Z,22.20
2018-09-18T19:50:45.504Z,22.13
2018-09-18T19:56:03.291Z,22.12
2018-09-18T20:01:21.040Z,21.97
2018-09-18T20:06:38.787Z,21.49
2018-09-18T20:11:56.990Z,21.65
2018-09-18T20:17:15.502Z,21.68
2018-09-18T20:22:33.973Z,21.57
2018-09-18T20:27:51.772Z,21.56
2018-09-18T20:33:09.943Z,21.43
2018-09-18T20:38:27.748Z,21.07
2018-09-18T20:43:45.462Z,20.73
2018-09-18T20:49:03.202Z,20.27
2018-09-18T20:54:20.993Z,20.65
2018-09-18T20:59:38.748Z,19.81
2018-09-18T21:04:56.471Z,19.97
2018-09-18T21:10:14.237Z,19.52
2018-09-18T21:15:32.033Z,19.07
2018-09-18T21:20:50.026Z,18.82
2018-09-18T21:26:15.927Z,18.59
2018-09-18T21:31:33.739Z,18.29
2018-09-18T21:36:51.514Z,18.08
2018-09-18T21:42:09.280Z,17.55
2018-09-18T21:47:27.259Z,17.72
2018-09-18T21:52:44.979Z,17.37
2018-09-18T21:58:02.930Z,17.76
2018-09-18T22:03:20.659Z,17.20
2018-09-18T22:08:38.575Z,17.24
2018-09-18T22:13:56.260Z,16.79
2018-09-18T22:19:14.033Z,16.87
2018-09-18T22:24:31.762Z,16.99
2018-09-18T22:29:50.147Z,16.58
2018-09-18T22:35:07.925Z,16.38
2018-09-18T22:40:25.715Z,16.36
2018-09-18T22:45:43.524Z,15.85
2018-09-18T22:51:01.222Z,15.73
2018-09-18T22:56:18.978Z,15.54
2018-09-18T23:01:36.824Z,15.34
2018-09-18T23:06:54.643Z,15.46
2018-09-18T23:12:13.031Z,15.98
2018-09-18T23:17:30.911Z,15.69
2018-09-18T23:22:48.707Z,15.47
2018-09-18T23:28:06.471Z,15.79
2018-09-18T23:33:24.238Z,15.39
2018-09-18T23:38:41.989Z,15.63
2018-09-18T23:44:00.577Z,15.86
2018-09-18T23:49:18.360Z,15.54
2018-09-18T23:54:36.122Z,15.51
2018-09-18T23:59:55.065Z,15.69
